createdAt,value
2019-02-10T00:00:42.749Z,100403.26
2019-02-10T00:05:47.186Z,100397.61
2019-02-10T00:10:51.589Z,100391.04
2019-02-10T00:15:56.131Z,100394.53
2019-02-10T00:21:00.228Z,100396.45
2019-02-10T00:26:04.421Z,100393.50
2019-02-10T00:31:08.586Z,100399.22
2019-02-10T00:36:12.685Z,100405.98
2019-02-10T00:41:16.753Z,100410.17
2019-02-10T00:46:20.834Z,100404.22
2019-02-10T00:51:26.425Z,100403.33
2019-02-10T00:56:30.491Z,100395.23
2019-02-10T01:01:34.612Z,100391.94
2019-02-10T01:06:41.433Z,100388.72
2019-02-10T01:11:45.596Z,100384.22
2019-02-10T01:16:49.987Z,100384.89
2019-02-10T01:21:54.040Z,100382.11
2019-02-10T01:26:58.494Z,100381.56
2019-02-10T01:32:02.845Z,100378.21
2019-02-10T01:37:07.940Z,100377.42
2019-02-10T01:42:11.959Z,100377.53
2019-02-10T01:47:16.001Z,100367.56
2019-02-10T01:52:20.078Z,100364.16
2019-02-10T01:57:24.198Z,100366.97
2019-02-10T02:02:28.543Z,100349.38
2019-02-10T02:07:32.842Z,100340.70
2019-02-10T02:12:36.983Z,100344.16
2019-02-10T02:17:41.155Z,100343.76
2019-02-10T02:22:45.343Z,100339.34
2019-02-10T02:27:49.438Z,100336.09
2019-02-10T02:32:53.533Z,100330.26
2019-02-10T02:37:57.574Z,100331.26
2019-02-10T02:43:01.639Z,100323.55
2019-02-10T02:48:05.682Z,100320.19
2019-02-10T02:53:09.821Z,100315.53
2019-02-10T02:58:13.870Z,100308.90
2019-02-10T03:03:17.911Z,100297.20
2019-02-10T03:08:21.984Z,100286.27
2019-02-10T03:13:26.048Z,100283.27
2019-02-10T03:18:30.419Z,100277.33
2019-02-10T03:23:34.737Z,100268.64
2019-02-10T03:28:38.890Z,100263.53
2019-02-10T03:33:42.961Z,100251.07
2019-02-10T03:38:47.349Z,100252.27
2019-02-10T03:43:51.795Z,100250.84
2019-02-10T03:48:55.880Z,100250.91
2019-02-10T03:54:00.327Z,100241.52
2019-02-10T03:59:04.402Z,100238.51
2019-02-10T04:04:08.802Z,100234.89
2019-02-10T04:09:12.924Z,100226.34
2019-02-10T04:14:17.051Z,100218.77
2019-02-10T04:19:21.131Z,100216.22
2019-02-10T04:24:25.516Z,100216.84
2019-02-10T04:29:29.666Z,100206.47
2019-02-10T04:34:34.158Z,100199.98
2019-02-10T04:39:38.214Z,100196.30
2019-02-10T04:44:42.578Z,100193.30
2019-02-10T04:49:46.956Z,100187.59
2019-02-10T04:54:51.512Z,100176.45
2019-02-10T04:59:55.555Z,100172.84
2019-02-10T05:04:59.652Z,100159.38
2019-02-10T05:10:04.647Z,100157.44
2019-02-10T05:15:08.993Z,100149.44
2019-02-10T05:20:13.078Z,100132.95
2019-02-10T05:25:17.213Z,100130.31
2019-02-10T05:30:21.330Z,100124.34
2019-02-10T05:35:29.411Z,100115.55
2019-02-10T05:40:33.537Z,100109.05
2019-02-10T05:45:37.938Z,100100.58
2019-02-10T05:50:42.280Z,100082.36
2019-02-10T05:55:46.371Z,100066.33
2019-02-10T06:00:50.480Z,100060.16
2019-02-10T06:05:54.680Z,100047.05
2019-02-10T06:10:58.780Z,100041.92
2019-02-10T06:16:02.857Z,100039.32
2019-02-10T06:21:07.199Z,100022.83
2019-02-10T06:26:11.392Z,100003.90
2019-02-10T06:31:15.562Z,100003.41
2019-02-10T06:36:19.685Z,99997.87
2019-02-10T06:41:23.789Z,100000.03
2019-02-10T06:46:27.843Z,99994.16
2019-02-10T06:51:32.494Z,99987.53
2019-02-10T06:56:37.041Z,99976.81
2019-02-10T07:01:41.095Z,99965.57
2019-02-10T07:06:45.487Z,99958.22
2019-02-10T07:11:49.666Z,99957.30
2019-02-10T07:17:29.397Z,99953.38
2019-02-10T07:23:20.538Z,99948.61
2019-02-10T07:29:13.315Z,99936.11
2019-02-10T07:35:04.014Z,99904.27
2019-02-10T07:40:59.604Z,99894.52
2019-02-10T07:46:14.913Z,99893.03
2019-02-10T07:51:37.267Z,99889.28
2019-02-10T07:57:15.258Z,99870.92
2019-02-10T08:02:51.047Z,99858.83
2019-02-10T08:08:46.635Z,99849.48
2019-02-10T08:14:28.817Z,99837.00
2019-02-10T08:20:09.528Z,99820.44
2019-02-10T08:25:42.030Z,99804.36
2019-02-10T08:30:55.876Z,99791.73
2019-02-10T08:36:38.055Z,99776.78
2019-02-10T08:42:08.650Z,99756.38
2019-02-10T08:47:40.969Z,99724.02
2019-02-10T08:52:52.273Z,99710.53
2019-02-10T08:57:56.381Z,99689.95
2019-02-10T09:03:00.677Z,99672.69
2019-02-10T09:08:04.790Z,99647.81
2019-02-10T09:13:09.118Z,99638.04
2019-02-10T09:18:13.286Z,99616.63
2019-02-10T09:23:17.431Z,99594.27
2019-02-10T09:28:21.524Z,99562.44
2019-02-10T09:33:25.643Z,99544.70
2019-02-10T09:38:29.959Z,99513.87
2019-02-10T09:43:34.330Z,99495.28
2019-02-10T09:48:38.498Z,99486.98
2019-02-10T09:53:42.553Z,99456.76
2019-02-10T09:58:46.642Z,99462.05
2019-02-10T10:03:50.734Z,99435.84
2019-02-10T10:08:54.869Z,99419.56
2019-02-10T10:13:59.004Z,99386.53
2019-02-10T10:19:03.121Z,99386.02
2019-02-10T10:24:07.265Z,99379.22
2019-02-10T10:29:11.605Z,99352.64
2019-02-10T10:34:15.711Z,99332.23
2019-02-10T10:39:26.947Z,99309.13
2019-02-10T10:44:25.956Z,99283.34
2019-02-10T10:49:30.080Z,99267.52
2019-02-10T10:54:34.143Z,99244.39
2019-02-10T10:59:38.306Z,99230.91
2019-02-10T11:04:42.487Z,99225.02
2019-02-10T11:09:46.785Z,99223.36
2019-02-10T11:14:50.876Z,99203.63
2019-02-10T11:19:54.940Z,99188.33
2019-02-10T11:25:17.214Z,99173.86
2019-02-10T11:30:38.851Z,99145.84
2019-02-10T11:36:00.795Z,99128.12
2019-02-10T11:41:04.871Z,99124.80
2019-02-10T11:46:08.964Z,99099.74
2019-02-10T11:51:13.081Z,99094.31
2019-02-10T11:56:34.819Z,99085.59
2019-02-10T12:01:38.978Z,99074.17
2019-02-10T12:06:43.050Z,99065.45
2019-02-10T12:11:47.206Z,99045.24
2019-02-10T12:16:51.621Z,99040.31
2019-02-10T12:22:14.210Z,99027.04
2019-02-10T12:27:36.268Z,99000.12
2019-02-10T12:32:40.382Z,99009.06
2019-02-10T12:37:44.440Z,98994.10
2019-02-10T12:42:48.629Z,98970.98
2019-02-10T12:47:52.675Z,98959.66
2019-02-10T12:52:56.713Z,98943.37
2019-02-10T12:58:00.829Z,98943.11
2019-02-10T13:03:04.910Z,98918.84
2019-02-10T13:08:09.011Z,98915.52
2019-02-10T13:13:19.182Z,98899.98
2019-02-10T13:18:18.793Z,98885.48
2019-02-10T13:23:22.893Z,98877.17
2019-02-10T13:28:27.988Z,98855.40
2019-02-10T13:33:32.031Z,98854.52
2019-02-10T13:38:36.082Z,98849.48
2019-02-10T13:43:40.166Z,98845.62
2019-02-10T13:48:44.311Z,98834.93
2019-02-10T13:53:48.417Z,98836.39
2019-02-10T13:58:52.509Z,98826.52
2019-02-10T14:03:56.588Z,98819.87
2019-02-10T14:09:00.739Z,98799.80
2019-02-10T14:14:04.950Z,98791.23
2019-02-10T14:19:27.055Z,98791.92
2019-02-10T14:24:31.198Z,98780.58
2019-02-10T14:29:38.013Z,98781.09
2019-02-10T14:34:42.067Z,98776.27
2019-02-10T14:40:04.785Z,98770.81
2019-02-10T14:45:26.751Z,98763.88
2019-02-10T14:50:48.544Z,98755.16
2019-02-10T14:55:52.719Z,98745.24
2019-02-10T15:00:56.729Z,98740.34
2019-02-10T15:06:00.813Z,98721.80
2019-02-10T15:11:04.911Z,98718.44
2019-02-10T15:16:08.972Z,98713.72
2019-02-10T15:21:13.136Z,98696.41
2019-02-10T15:26:17.260Z,98687.61
2019-02-10T15:31:21.410Z,98677.69
2019-02-10T15:36:25.556Z,98672.59
2019-02-10T15:41:29.774Z,98663.42
2019-02-10T15:46:33.894Z,98649.95
2019-02-10T15:51:38.020Z,98644.29
2019-02-10T15:56:42.079Z,98639.88
2019-02-10T16:01:46.357Z,98634.15
2019-02-10T16:06:50.631Z,98630.44
2019-02-10T16:11:54.753Z,98618.33
2019-02-10T16:16:58.814Z,98614.73
2019-02-10T16:22:02.998Z,98606.55
2019-02-10T16:27:07.115Z,98597.10
2019-02-10T16:32:11.295Z,98587.28
2019-02-10T16:37:15.515Z,98578.19
2019-02-10T16:42:19.618Z,98569.48
2019-02-10T16:47:23.779Z,98574.28
2019-02-10T16:52:27.868Z,98568.96
2019-02-10T16:57:31.973Z,98559.56
2019-02-10T17:02:36.142Z,98562.11
2019-02-10T17:07:40.270Z,98555.16
2019-02-10T17:12:44.319Z,98550.23
2019-02-10T17:17:48.381Z,98548.58
2019-02-10T17:22:52.443Z,98541.10
2019-02-10T17:27:56.484Z,98539.58
2019-02-10T17:33:00.500Z,98538.84
2019-02-10T17:38:04.521Z,98538.76
2019-02-10T17:43:08.654Z,98538.42
2019-02-10T17:48:12.727Z,98538.76
2019-02-10T17:53:16.810Z,98533.91
2019-02-10T17:58:20.845Z,98541.17
2019-02-10T18:03:24.994Z,98543.22
2019-02-10T18:08:29.104Z,98544.38
2019-02-10T18:13:33.168Z,98550.70
2019-02-10T18:18:37.229Z,98553.48
2019-02-10T18:23:41.381Z,98555.32
2019-02-10T18:28:45.492Z,98560.63
2019-02-10T18:33:49.550Z,98564.00
2019-02-10T18:38:53.639Z,98558.38
2019-02-10T18:43:57.897Z,98572.65
2019-02-10T18:49:02.084Z,98590.03
2019-02-10T18:54:06.213Z,98613.03
2019-02-10T18:59:10.377Z,98618.41
2019-02-10T19:04:14.723Z,98621.63
2019-02-10T19:09:18.888Z,98621.13
2019-02-10T19:14:23.061Z,98623.78
2019-02-10T19:19:27.191Z,98615.59
2019-02-10T19:24:31.359Z,98623.67
2019-02-10T19:29:35.492Z,98621.02
2019-02-10T19:34:39.877Z,98617.73
2019-02-10T19:39:44.039Z,98622.23
2019-02-10T19:44:48.244Z,98613.41
2019-02-10T19:49:52.389Z,98634.72
2019-02-10T19:54:56.505Z,98633.25
2019-02-10T20:00:00.668Z,98632.84
2019-02-10T20:05:05.342Z,98619.92
2019-02-10T20:10:14.480Z,98623.59
2019-02-10T20:15:19.332Z,98616.91
2019-02-10T20:20:24.282Z,98620.72
2019-02-10T20:25:29.396Z,98640.12
2019-02-10T20:30:33.872Z,98638.70
2019-02-10T20:35:38.581Z,98650.94
2019-02-10T20:40:43.356Z,98624.93
2019-02-10T20:45:48.676Z,98627.14
2019-02-10T20:50:53.162Z,98635.09
2019-02-10T20:55:59.225Z,98662.92
2019-02-10T21:01:04.357Z,98661.63
2019-02-10T21:06:10.307Z,98660.07
2019-02-10T21:11:18.336Z,98657.66
2019-02-10T21:16:24.035Z,98659.91
2019-02-10T21:21:34.847Z,98665.48
2019-02-10T21:26:42.264Z,98680.98
2019-02-10T21:31:46.575Z,98678.12
2019-02-10T21:36:50.761Z,98688.97
2019-02-10T21:41:54.991Z,98690.64
2019-02-10T21:46:59.715Z,98691.38
2019-02-10T21:52:03.742Z,98695.06
2019-02-10T21:57:07.871Z,98675.87
2019-02-10T22:02:12.031Z,98680.64
2019-02-10T22:07:16.080Z,98677.38
2019-02-10T22:12:20.686Z,98669.66
2019-02-10T22:17:24.792Z,98667.93
2019-02-10T22:22:29.353Z,98676.66
2019-02-10T22:27:33.744Z,98684.63
2019-02-10T22:32:38.121Z,98690.23
2019-02-10T22:37:42.190Z,98686.56
2019-02-10T22:42:46.246Z,98694.81
2019-02-10T22:47:50.249Z,98701.97
2019-02-10T22:52:54.319Z,98693.42
2019-02-10T22:57:58.390Z,98695.64
2019-02-10T23:03:02.482Z,98701.72
2019-02-10T23:08:06.540Z,98694.25
2019-02-10T23:13:11.161Z,98681.06
2019-02-10T23:18:15.317Z,98682.71
2019-02-10T23:23:19.442Z,98668.17
2019-02-10T23:28:23.993Z,98655.78
2019-02-10T23:33:28.049Z,98660.70
2019-02-10T23:38:32.104Z,98669.08
2019-02-10T23:43:36.331Z,98666.42
2019-02-10T23:48:40.384Z,98675.33
2019-02-10T23:53:44.575Z,98705.37
2019-02-10T23:58:48.685Z,98713.03
